Time;durP1;ratioP1;P1;durP2;ratioP2;P2;SDS_P1;SDS_P2;PMS_P1;PMS_P2;Temp;Humidity;BMP_temperature;BMP_pressure;BME280_temperature;BME280_humidity;BME280_pressure;Samples;Min_cycle;Max_cycle;Signal;HPM_P1;HPM_P2
2020/12/25 00:00:11;;;;;;;0.9;0.9;;;;;;;4.77;82.24316;94513.12;;;;
2020/12/25 00:01:12;;;;;;;0.9;0.9;;;;;;;4.77;82.24316;94513.12;;;;
2020/12/25 00:02:12;;;;;;;0.9;0.9;;;;;;;4.77;82.24316;94513.12;;;;
2020/12/25 00:03:15;;;;;;;0.9;0.9;;;;;;;4.77;82.24316;94513.12;;;;
2020/12/25 00:04:16;;;;;;;0.9;0.9;;;;;;;4.77;82.24316;94513.12;;;;
2020/12/25 00:05:16;;;;;;;0.9;0.9;;;;;;;4.77;82.24316;94513.12;;;;
2020/12/25 00:06:17;;;;;;;0.7;0.7;;;;;;;4.68;83.02734;94515.77;;;;
2020/12/25 00:07:18;;;;;;;0.7;0.7;;;;;;;4.68;83.02734;94515.77;;;;
2020/12/25 00:08:20;;;;;;;0.7;0.7;;;;;;;4.68;83.02734;94515.77;;;;
2020/12/25 00:09:21;;;;;;;0.7;0.7;;;;;;;4.68;83.02734;94515.77;;;;
2020/12/25 00:10:22;;;;;;;0.7;0.7;;;;;;;4.68;83.02734;94515.77;;;;
2020/12/25 00:11:22;;;;;;;0.7;0.7;;;;;;;4.68;83.02734;94515.77;;;;
2020/12/25 00:12:29;;;;;;;0.7;0.7;;;;;;;4.68;83.02734;94515.77;;;;
2020/12/25 00:13:29;;;;;;;0.7;0.7;;;;;;;4.68;83.02734;94515.77;;;;
2020/12/25 00:14:30;;;;;;;0.7;0.7;;;;;;;4.68;83.02734;94515.77;;;;
2020/12/25 00:15:30;;;;;;;0.7;0.7;;;;;;;4.68;83.02734;94515.77;;;;
2020/12/25 00:16:31;;;;;;;0.7;0.7;;;;;;;4.53;83.33496;94521.01;;;;
2020/12/25 00:17:32;;;;;;;0.7;0.7;;;;;;;4.53;83.33496;94521.01;;;;
2020/12/25 00:18:34;;;;;;;0.7;0.7;;;;;;;4.53;83.33496;94521.01;;;;
2020/12/25 00:19:34;;;;;;;0.7;0.7;;;;;;;4.53;83.33496;94521.01;;;;
2020/12/25 00:20:35;;;;;;;0.7;0.7;;;;;;;4.53;83.33496;94521.01;;;;
2020/12/25 00:21:37;;;;;;;0.7;0.7;;;;;;;4.53;83.33496;94521.01;;;;
2020/12/25 00:22:37;;;;;;;0.7;0.7;;;;;;;4.53;83.33496;94521.01;;;;
2020/12/25 00:23:38;;;;;;;0.7;0.7;;;;;;;4.53;83.33496;94521.01;;;;
2020/12/25 00:24:40;;;;;;;0.7;0.7;;;;;;;4.53;83.33496;94521.01;;;;
2020/12/25 00:25:40;;;;;;;0.7;0.7;;;;;;;4.53;83.33496;94521.01;;;;
2020/12/25 00:26:41;;;;;;;0.7;0.7;;;;;;;4.53;83.33496;94521.01;;;;
2020/12/25 00:27:41;;;;;;;1;0.95;;;;;;;4.44;83.95898;94523.66;;;;
2020/12/25 00:28:43;;;;;;;1;0.95;;;;;;;4.44;83.95898;94523.66;;;;
2020/12/25 00:29:43;;;;;;;1;0.95;;;;;;;4.44;83.95898;94523.66;;;;
2020/12/25 00:30:43;;;;;;;1;0.95;;;;;;;4.44;83.95898;94523.66;;;;
2020/12/25 00:31:45;;;;;;;1;0.95;;;;;;;4.44;83.95898;94523.66;;;;
2020/12/25 00:32:46;;;;;;;1;0.95;;;;;;;4.44;83.95898;94523.66;;;;
2020/12/25 00:33:46;;;;;;;1;0.95;;;;;;;4.44;83.95898;94523.66;;;;
2020/12/25 00:34:47;;;;;;;1;0.95;;;;;;;4.44;83.95898;94523.66;;;;
2020/12/25 00:35:47;;;;;;;1;0.95;;;;;;;4.44;83.95898;94523.66;;;;
2020/12/25 00:36:48;;;;;;;1;0.95;;;;;;;4.44;83.95898;94523.66;;;;
2020/12/25 00:37:48;;;;;;;1;0.95;;;;;;;4.44;83.95898;94523.66;;;;
2020/12/25 00:38:49;;;;;;;1.4;1;;;;;;;4.29;83.86621;94540.12;;;;
2020/12/25 00:39:49;;;;;;;1.4;1;;;;;;;4.29;83.86621;94540.12;;;;
2020/12/25 00:40:50;;;;;;;1.4;1;;;;;;;4.29;83.86621;94540.12;;;;
2020/12/25 00:41:50;;;;;;;1.4;1;;;;;;;4.29;83.86621;94540.12;;;;
2020/12/25 00:42:51;;;;;;;1.4;1;;;;;;;4.29;83.86621;94540.12;;;;
2020/12/25 00:43:52;;;;;;;1.4;1;;;;;;;4.29;83.86621;94540.12;;;;
2020/12/25 00:44:53;;;;;;;1.4;1;;;;;;;4.29;83.86621;94540.12;;;;
2020/12/25 00:45:53;;;;;;;1.4;1;;;;;;;4.29;83.86621;94540.12;;;;
2020/12/25 00:46:54;;;;;;;1.4;1;;;;;;;4.29;83.86621;94540.12;;;;
2020/12/25 00:47:54;;;;;;;1.4;1;;;;;;;4.29;83.86621;94540.12;;;;
2020/12/25 00:48:55;;;;;;;1.2;1.1;;;;;;;4.26;83.8291;94530.67;;;;
2020/12/25 00:49:55;;;;;;;1.2;1.1;;;;;;;4.26;83.8291;94530.67;;;;
2020/12/25 00:50:56;;;;;;;1.2;1.1;;;;;;;4.26;83.8291;94530.67;;;;
2020/12/25 00:51:56;;;;;;;1.2;1.1;;;;;;;4.26;83.8291;94530.67;;;;
2020/12/25 00:52:57;;;;;;;1.2;1.1;;;;;;;4.26;83.8291;94530.67;;;;
2020/12/25 00:53:57;;;;;;;1.2;1.1;;;;;;;4.26;83.8291;94530.67;;;;
2020/12/25 00:54:58;;;;;;;1.2;1.1;;;;;;;4.26;83.8291;94530.67;;;;
2020/12/25 00:55:58;;;;;;;1.2;1.1;;;;;;;4.26;83.8291;94530.67;;;;
2020/12/25 00:57:02;;;;;;;1.2;1.1;;;;;;;4.26;83.8291;94530.67;;;;
2020/12/25 00:58:02;;;;;;;1.2;1.1;;;;;;;4.26;83.8291;94530.67;;;;
2020/12/25 00:59:03;;;;;;;1.2;1.1;;;;;;;4.26;83.8291;94530.67;;;;
2020/12/25 01:00:03;;;;;;;1.3;1.2;;;;;;;4.18;83.98047;94542.97;;;;
2020/12/25 01:01:04;;;;;;;1.3;1.2;;;;;;;4.18;83.98047;94542.97;;;;
2020/12/25 01:02:06;;;;;;;1.3;1.2;;;;;;;4.18;83.98047;94542.97;;;;
2020/12/25 01:03:06;;;;;;;1.3;1.2;;;;;;;4.18;83.98047;94542.97;;;;
2020/12/25 01:04:07;;;;;;;1.3;1.2;;;;;;;4.18;83.98047;94542.97;;;;
2020/12/25 01:05:07;;;;;;;1.3;1.2;;;;;;;4.18;83.98047;94542.97;;;;
2020/12/25 01:06:08;;;;;;;1.3;1.2;;;;;;;4.18;83.98047;94542.97;;;;
2020/12/25 01:07:09;;;;;;;1.3;1.2;;;;;;;4.18;83.98047;94542.97;;;;
2020/12/25 01:08:10;;;;;;;1.3;1.2;;;;;;;4.18;83.98047;94542.97;;;;
2020/12/25 01:09:10;;;;;;;1.3;1.2;;;;;;;4.18;83.98047;94542.97;;;;
2020/12/25 01:10:11;;;;;;;1.25;1.15;;;;;;;4.24;83.92871;94550.64;;;;
2020/12/25 01:11:12;;;;;;;1.25;1.15;;;;;;;4.24;83.92871;94550.64;;;;
2020/12/25 01:12:13;;;;;;;1.25;1.15;;;;;;;4.24;83.92871;94550.64;;;;
2020/12/25 01:13:14;;;;;;;1.25;1.15;;;;;;;4.24;83.92871;94550.64;;;;
2020/12/25 01:14:14;;;;;;;1.25;1.15;;;;;;;4.24;83.92871;94550.64;;;;
2020/12/25 01:15:15;;;;;;;1.25;1.15;;;;;;;4.24;83.92871;94550.64;;;;
2020/12/25 01:16:15;;;;;;;1.25;1.15;;;;;;;4.24;83.92871;94550.64;;;;
2020/12/25 01:17:16;;;;;;;1.25;1.15;;;;;;;4.24;83.92871;94550.64;;;;
2020/12/25 01:18:16;;;;;;;1.25;1.15;;;;;;;4.24;83.92871;94550.64;;;;
2020/12/25 01:19:17;;;;;;;1.25;1.15;;;;;;;4.24;83.92871;94550.64;;;;
2020/12/25 01:20:17;;;;;;;1.25;1.15;;;;;;;4.24;83.92871;94550.64;;;;
2020/12/25 01:21:18;;;;;;;1.25;1.15;;;;;;;4.23;83.62402;94556.5;;;;
2020/12/25 01:22:18;;;;;;;1.25;1.15;;;;;;;4.23;83.62402;94556.5;;;;
2020/12/25 01:23:19;;;;;;;1.25;1.15;;;;;;;4.23;83.62402;94556.5;;;;
2020/12/25 01:24:19;;;;;;;1.25;1.15;;;;;;;4.23;83.62402;94556.5;;;;
2020/12/25 01:25:21;;;;;;;1.25;1.15;;;;;;;4.23;83.62402;94556.5;;;;
2020/12/25 01:26:21;;;;;;;1.25;1.15;;;;;;;4.23;83.62402;94556.5;;;;
2020/12/25 01:27:22;;;;;;;1.25;1.15;;;;;;;4.23;83.62402;94556.5;;;;
2020/12/25 01:28:22;;;;;;;1.25;1.15;;;;;;;4.23;83.62402;94556.5;;;;
2020/12/25 01:29:23;;;;;;;1.25;1.15;;;;;;;4.23;83.62402;94556.5;;;;
2020/12/25 01:30:23;;;;;;;1.25;1.15;;;;;;;4.23;83.62402;94556.5;;;;
2020/12/25 01:31:23;;;;;;;1.4;1.3;;;;;;;4.29;83.87598;94573.94;;;;
2020/12/25 01:32:24;;;;;;;1.4;1.3;;;;;;;4.29;83.87598;94573.94;;;;
2020/12/25 01:33:24;;;;;;;1.4;1.3;;;;;;;4.29;83.87598;94573.94;;;;
2020/12/25 01:34:25;;;;;;;1.4;1.3;;;;;;;4.29;83.87598;94573.94;;;;
2020/12/25 01:35:25;;;;;;;1.4;1.3;;;;;;;4.29;83.87598;94573.94;;;;
2020/12/25 01:36:26;;;;;;;1.4;1.3;;;;;;;4.29;83.87598;94573.94;;;;
2020/12/25 01:37:26;;;;;;;1.4;1.3;;;;;;;4.29;83.87598;94573.94;;;;
2020/12/25 01:38:27;;;;;;;1.4;1.3;;;;;;;4.29;83.87598;94573.94;;;;
2020/12/25 01:39:28;;;;;;;1.4;1.3;;;;;;;4.29;83.87598;94573.94;;;;
2020/12/25 01:40:28;;;;;;;1.4;1.3;;;;;;;4.29;83.87598;94573.94;;;;
2020/12/25 01:41:28;;;;;;;1.4;1.3;;;;;;;4.29;83.87598;94573.94;;;;
2020/12/25 01:42:29;;;;;;;1.55;1.45;;;;;;;4.29;83.81348;94566.85;;;;
2020/12/25 01:43:29;;;;;;;1.55;1.45;;;;;;;4.29;83.81348;94566.85;;;;
2020/12/25 01:44:30;;;;;;;1.55;1.45;;;;;;;4.29;83.81348;94566.85;;;;
2020/12/25 01:45:30;;;;;;;1.55;1.45;;;;;;;4.29;83.81348;94566.85;;;;
2020/12/25 01:46:31;;;;;;;1.55;1.45;;;;;;;4.29;83.81348;94566.85;;;;
2020/12/25 01:47:32;;;;;;;1.55;1.45;;;;;;;4.29;83.81348;94566.85;;;;
2020/12/25 01:48:32;;;;;;;1.55;1.45;;;;;;;4.29;83.81348;94566.85;;;;
2020/12/25 01:49:33;;;;;;;1.55;1.45;;;;;;;4.29;83.81348;94566.85;;;;
2020/12/25 01:50:34;;;;;;;1.55;1.45;;;;;;;4.29;83.81348;94566.85;;;;
2020/12/25 01:51:35;;;;;;;1.55;1.45;;;;;;;4.29;83.81348;94566.85;;;;
2020/12/25 01:52:36;;;;;;;1.85;1.75;;;;;;;4.37;83.63867;94571.12;;;;
2020/12/25 01:53:36;;;;;;;1.85;1.75;;;;;;;4.37;83.63867;94571.12;;;;
2020/12/25 01:54:38;;;;;;;1.85;1.75;;;;;;;4.37;83.63867;94571.12;;;;
2020/12/25 01:55:41;;;;;;;1.85;1.75;;;;;;;4.37;83.63867;94571.12;;;;
2020/12/25 01:56:42;;;;;;;1.85;1.75;;;;;;;4.37;83.63867;94571.12;;;;
2020/12/25 01:57:43;;;;;;;1.85;1.75;;;;;;;4.37;83.63867;94571.12;;;;
2020/12/25 01:58:44;;;;;;;1.85;1.75;;;;;;;4.37;83.63867;94571.12;;;;
2020/12/25 01:59:45;;;;;;;1.85;1.75;;;;;;;4.37;83.63867;94571.12;;;;
2020/12/25 02:00:46;;;;;;;1.85;1.75;;;;;;;4.37;83.63867;94571.12;;;;
2020/12/25 02:01:48;;;;;;;1.85;1.75;;;;;;;4.37;83.63867;94571.12;;;;
2020/12/25 02:02:49;;;;;;;1.85;1.75;;;;;;;4.37;83.63867;94571.12;;;;
2020/12/25 02:03:49;;;;;;;1.65;1.55;;;;;;;4.36;83.73145;94578.81;;;;
2020/12/25 02:04:50;;;;;;;1.65;1.55;;;;;;;4.36;83.73145;94578.81;;;;
2020/12/25 02:05:51;;;;;;;1.65;1.55;;;;;;;4.36;83.73145;94578.81;;;;
2020/12/25 02:06:52;;;;;;;1.65;1.55;;;;;;;4.36;83.73145;94578.81;;;;
2020/12/25 02:07:55;;;;;;;1.65;1.55;;;;;;;4.36;83.73145;94578.81;;;;
2020/12/25 02:08:56;;;;;;;1.65;1.55;;;;;;;4.36;83.73145;94578.81;;;;
2020/12/25 02:09:56;;;;;;;1.65;1.55;;;;;;;4.36;83.73145;94578.81;;;;
2020/12/25 02:10:57;;;;;;;1.65;1.55;;;;;;;4.36;83.73145;94578.81;;;;
2020/12/25 02:11:58;;;;;;;1.65;1.55;;;;;;;4.36;83.73145;94578.81;;;;
2020/12/25 02:12:58;;;;;;;1.65;1.55;;;;;;;4.36;83.73145;94578.81;;;;
2020/12/25 02:13:59;;;;;;;2.1;1.9;;;;;;;4.41;83.96191;94583.01;;;;
2020/12/25 02:14:59;;;;;;;2.1;1.9;;;;;;;4.41;83.96191;94583.01;;;;
2020/12/25 02:16:00;;;;;;;2.1;1.9;;;;;;;4.41;83.96191;94583.01;;;;
2020/12/25 02:17:01;;;;;;;2.1;1.9;;;;;;;4.41;83.96191;94583.01;;;;
2020/12/25 02:18:01;;;;;;;2.1;1.9;;;;;;;4.41;83.96191;94583.01;;;;
2020/12/25 02:19:03;;;;;;;2.1;1.9;;;;;;;4.41;83.96191;94583.01;;;;
2020/12/25 02:20:04;;;;;;;2.1;1.9;;;;;;;4.41;83.96191;94583.01;;;;
2020/12/25 02:21:04;;;;;;;2.1;1.9;;;;;;;4.41;83.96191;94583.01;;;;
2020/12/25 02:22:05;;;;;;;2.1;1.9;;;;;;;4.41;83.96191;94583.01;;;;
2020/12/25 02:23:06;;;;;;;2.1;1.9;;;;;;;4.41;83.96191;94583.01;;;;
2020/12/25 02:24:08;;;;;;;2.1;1.9;;;;;;;4.41;83.96191;94583.01;;;;
2020/12/25 02:25:09;;;;;;;2.75;2.35;;;;;;;4.39;83.83203;94592.18;;;;
2020/12/25 02:26:09;;;;;;;2.75;2.35;;;;;;;4.39;83.83203;94592.18;;;;
2020/12/25 02:27:10;;;;;;;2.75;2.35;;;;;;;4.39;83.83203;94592.18;;;;
2020/12/25 02:28:10;;;;;;;2.75;2.35;;;;;;;4.39;83.83203;94592.18;;;;
2020/12/25 02:29:11;;;;;;;2.75;2.35;;;;;;;4.39;83.83203;94592.18;;;;
2020/12/25 02:30:12;;;;;;;2.75;2.35;;;;;;;4.39;83.83203;94592.18;;;;
2020/12/25 02:31:12;;;;;;;2.75;2.35;;;;;;;4.39;83.83203;94592.18;;;;
2020/12/25 02:32:13;;;;;;;2.75;2.35;;;;;;;4.39;83.83203;94592.18;;;;
2020/12/25 02:33:13;;;;;;;2.75;2.35;;;;;;;4.39;83.83203;94592.18;;;;
2020/12/25 02:34:14;;;;;;;2.75;2.35;;;;;;;4.39;83.83203;94592.18;;;;
2020/12/25 02:35:14;;;;;;;2.900001;2.6;;;;;;;4.42;84.02637;94599.76;;;;
2020/12/25 02:36:15;;;;;;;2.900001;2.6;;;;;;;4.42;84.02637;94599.76;;;;
2020/12/25 02:37:15;;;;;;;2.900001;2.6;;;;;;;4.42;84.02637;94599.76;;;;
2020/12/25 02:38:16;;;;;;;2.900001;2.6;;;;;;;4.42;84.02637;94599.76;;;;
2020/12/25 02:39:16;;;;;;;2.900001;2.6;;;;;;;4.42;84.02637;94599.76;;;;
2020/12/25 02:40:17;;;;;;;2.900001;2.6;;;;;;;4.42;84.02637;94599.76;;;;
2020/12/25 02:41:17;;;;;;;2.900001;2.6;;;;;;;4.42;84.02637;94599.76;;;;
2020/12/25 02:42:18;;;;;;;2.900001;2.6;;;;;;;4.42;84.02637;94599.76;;;;
2020/12/25 02:43:18;;;;;;;2.900001;2.6;;;;;;;4.42;84.02637;94599.76;;;;
2020/12/25 02:44:19;;;;;;;2.900001;2.6;;;;;;;4.42;84.02637;94599.76;;;;
2020/12/25 02:45:19;;;;;;;2.900001;2.6;;;;;;;4.42;84.02637;94599.76;;;;
2020/12/25 02:46:20;;;;;;;2.85;2.35;;;;;;;4.36;84.7832;94612.22;;;;
2020/12/25 02:47:21;;;;;;;2.85;2.35;;;;;;;4.36;84.7832;94612.22;;;;
2020/12/25 02:48:21;;;;;;;2.85;2.35;;;;;;;4.36;84.7832;94612.22;;;;
2020/12/25 02:49:22;;;;;;;2.85;2.35;;;;;;;4.36;84.7832;94612.22;;;;
2020/12/25 02:50:22;;;;;;;2.85;2.35;;;;;;;4.36;84.7832;94612.22;;;;
2020/12/25 02:51:23;;;;;;;2.85;2.35;;;;;;;4.36;84.7832;94612.22;;;;
2020/12/25 02:52:23;;;;;;;2.85;2.35;;;;;;;4.36;84.7832;94612.22;;;;
2020/12/25 02:53:24;;;;;;;2.85;2.35;;;;;;;4.36;84.7832;94612.22;;;;
2020/12/25 02:54:24;;;;;;;2.85;2.35;;;;;;;4.36;84.7832;94612.22;;;;
2020/12/25 02:55:25;;;;;;;2.85;2.35;;;;;;;4.36;84.7832;94612.22;;;;
2020/12/25 02:56:25;;;;;;;2.85;2.35;;;;;;;4.36;84.7832;94612.22;;;;
2020/12/25 02:57:26;;;;;;;2.3;2.1;;;;;;;4.3;86.46387;94641.94;;;;
2020/12/25 02:58:26;;;;;;;2.3;2.1;;;;;;;4.3;86.46387;94641.94;;;;
2020/12/25 02:59:27;;;;;;;2.3;2.1;;;;;;;4.3;86.46387;94641.94;;;;
2020/12/25 03:00:27;;;;;;;2.3;2.1;;;;;;;4.3;86.46387;94641.94;;;;
2020/12/25 03:01:28;;;;;;;2.3;2.1;;;;;;;4.3;86.46387;94641.94;;;;
2020/12/25 03:02:28;;;;;;;2.3;2.1;;;;;;;4.3;86.46387;94641.94;;;;
2020/12/25 03:03:28;;;;;;;2.3;2.1;;;;;;;4.3;86.46387;94641.94;;;;
2020/12/25 03:04:29;;;;;;;2.3;2.1;;;;;;;4.3;86.46387;94641.94;;;;
2020/12/25 03:05:29;;;;;;;2.3;2.1;;;;;;;4.3;86.46387;94641.94;;;;
2020/12/25 03:06:30;;;;;;;2.3;2.1;;;;;;;4.3;86.46387;94641.94;;;;
2020/12/25 03:07:30;;;;;;;2.25;2.05;;;;;;;4.05;86.21387;94654.8;;;;
2020/12/25 03:08:31;;;;;;;2.25;2.05;;;;;;;4.05;86.21387;94654.8;;;;
2020/12/25 03:09:31;;;;;;;2.25;2.05;;;;;;;4.05;86.21387;94654.8;;;;
2020/12/25 03:10:32;;;;;;;2.25;2.05;;;;;;;4.05;86.21387;94654.8;;;;
2020/12/25 03:11:32;;;;;;;2.25;2.05;;;;;;;4.05;86.21387;94654.8;;;;
2020/12/25 03:12:33;;;;;;;2.25;2.05;;;;;;;4.05;86.21387;94654.8;;;;
2020/12/25 03:13:36;;;;;;;2.25;2.05;;;;;;;4.05;86.21387;94654.8;;;;
2020/12/25 03:14:36;;;;;;;2.25;2.05;;;;;;;4.05;86.21387;94654.8;;;;
2020/12/25 03:15:37;;;;;;;2.25;2.05;;;;;;;4.05;86.21387;94654.8;;;;
2020/12/25 03:16:37;;;;;;;2.25;2.05;;;;;;;4.05;86.21387;94654.8;;;;
2020/12/25 03:17:38;;;;;;;2.25;2.05;;;;;;;4.05;86.21387;94654.8;;;;
2020/12/25 03:18:38;;;;;;;2.7;1.65;;;;;;;3.81;86.75391;94670.62;;;;
2020/12/25 03:19:39;;;;;;;2.7;1.65;;;;;;;3.81;86.75391;94670.62;;;;
2020/12/25 03:20:39;;;;;;;2.7;1.65;;;;;;;3.81;86.75391;94670.62;;;;
2020/12/25 03:21:40;;;;;;;2.7;1.65;;;;;;;3.81;86.75391;94670.62;;;;
2020/12/25 03:22:40;;;;;;;2.7;1.65;;;;;;;3.81;86.75391;94670.62;;;;
2020/12/25 03:23:40;;;;;;;2.7;1.65;;;;;;;3.81;86.75391;94670.62;;;;
2020/12/25 03:24:41;;;;;;;2.7;1.65;;;;;;;3.81;86.75391;94670.62;;;;
2020/12/25 03:25:41;;;;;;;2.7;1.65;;;;;;;3.81;86.75391;94670.62;;;;
2020/12/25 03:26:42;;;;;;;2.7;1.65;;;;;;;3.81;86.75391;94670.62;;;;
2020/12/25 03:27:42;;;;;;;2.7;1.65;;;;;;;3.81;86.75391;94670.62;;;;
2020/12/25 03:28:43;;;;;;;1.3;1.2;;;;;;;3.49;86.85742;94680.44;;;;
2020/12/25 03:29:44;;;;;;;1.3;1.2;;;;;;;3.49;86.85742;94680.44;;;;
2020/12/25 03:30:44;;;;;;;1.3;1.2;;;;;;;3.49;86.85742;94680.44;;;;
2020/12/25 03:31:46;;;;;;;1.3;1.2;;;;;;;3.49;86.85742;94680.44;;;;
2020/12/25 03:32:47;;;;;;;1.3;1.2;;;;;;;3.49;86.85742;94680.44;;;;
2020/12/25 03:33:47;;;;;;;1.3;1.2;;;;;;;3.49;86.85742;94680.44;;;;
2020/12/25 03:34:48;;;;;;;1.3;1.2;;;;;;;3.49;86.85742;94680.44;;;;
2020/12/25 03:35:48;;;;;;;1.3;1.2;;;;;;;3.49;86.85742;94680.44;;;;
2020/12/25 03:36:49;;;;;;;1.3;1.2;;;;;;;3.49;86.85742;94680.44;;;;
2020/12/25 03:37:50;;;;;;;1.3;1.2;;;;;;;3.49;86.85742;94680.44;;;;
2020/12/25 03:38:50;;;;;;;1.3;1.2;;;;;;;3.49;86.85742;94680.44;;;;
2020/12/25 03:39:51;;;;;;;1.1;1.1;;;;;;;3.25;87.08203;94709.06;;;;
2020/12/25 03:40:51;;;;;;;1.1;1.1;;;;;;;3.25;87.08203;94709.06;;;;
2020/12/25 03:41:52;;;;;;;1.1;1.1;;;;;;;3.25;87.08203;94709.06;;;;
2020/12/25 03:42:52;;;;;;;1.1;1.1;;;;;;;3.25;87.08203;94709.06;;;;
2020/12/25 03:43:53;;;;;;;1.1;1.1;;;;;;;3.25;87.08203;94709.06;;;;
2020/12/25 03:44:54;;;;;;;1.1;1.1;;;;;;;3.25;87.08203;94709.06;;;;
2020/12/25 03:45:55;;;;;;;1.1;1.1;;;;;;;3.25;87.08203;94709.06;;;;
2020/12/25 03:46:55;;;;;;;1.1;1.1;;;;;;;3.25;87.08203;94709.06;;;;
2020/12/25 03:48:00;;;;;;;1.1;1.1;;;;;;;3.25;87.08203;94709.06;;;;
2020/12/25 03:49:01;;;;;;;1.1;1.1;;;;;;;3.25;87.08203;94709.06;;;;
2020/12/25 03:50:02;;;;;;;1;0.95;;;;;;;2.96;87.05273;94732.12;;;;
2020/12/25 03:51:03;;;;;;;1;0.95;;;;;;;2.96;87.05273;94732.12;;;;
2020/12/25 03:52:03;;;;;;;1;0.95;;;;;;;2.96;87.05273;94732.12;;;;
2020/12/25 03:53:04;;;;;;;1;0.95;;;;;;;2.96;87.05273;94732.12;;;;
2020/12/25 03:54:04;;;;;;;1;0.95;;;;;;;2.96;87.05273;94732.12;;;;
2020/12/25 03:55:05;;;;;;;1;0.95;;;;;;;2.96;87.05273;94732.12;;;;
2020/12/25 03:56:05;;;;;;;1;0.95;;;;;;;2.96;87.05273;94732.12;;;;
2020/12/25 03:57:05;;;;;;;1;0.95;;;;;;;2.96;87.05273;94732.12;;;;
2020/12/25 03:58:06;;;;;;;1;0.95;;;;;;;2.96;87.05273;94732.12;;;;
2020/12/25 03:59:06;;;;;;;1;0.95;;;;;;;2.96;87.05273;94732.12;;;;
2020/12/25 04:00:07;;;;;;;1;0.95;;;;;;;2.96;87.05273;94732.12;;;;
2020/12/25 04:01:07;;;;;;;1.1;1;;;;;;;2.71;87.76758;94757.7;;;;
2020/12/25 04:02:08;;;;;;;1.1;1;;;;;;;2.71;87.76758;94757.7;;;;
2020/12/25 04:03:09;;;;;;;1.1;1;;;;;;;2.71;87.76758;94757.7;;;;
2020/12/25 04:04:09;;;;;;;1.1;1;;;;;;;2.71;87.76758;94757.7;;;;
2020/12/25 04:05:10;;;;;;;1.1;1;;;;;;;2.71;87.76758;94757.7;;;;
2020/12/25 04:06:11;;;;;;;1.1;1;;;;;;;2.71;87.76758;94757.7;;;;
2020/12/25 04:07:11;;;;;;;1.1;1;;;;;;;2.71;87.76758;94757.7;;;;
2020/12/25 04:08:12;;;;;;;1.1;1;;;;;;;2.71;87.76758;94757.7;;;;
2020/12/25 04:09:12;;;;;;;1.1;1;;;;;;;2.71;87.76758;94757.7;;;;
2020/12/25 04:10:12;;;;;;;1.1;1;;;;;;;2.71;87.76758;94757.7;;;;
2020/12/25 04:11:13;;;;;;;1.1;1;;;;;;;2.71;87.76758;94757.7;;;;
2020/12/25 04:12:14;;;;;;;1;1;;;;;;;2.59;88.12012;94781.84;;;;
2020/12/25 04:13:14;;;;;;;1;1;;;;;;;2.59;88.12012;94781.84;;;;
2020/12/25 04:14:15;;;;;;;1;1;;;;;;;2.59;88.12012;94781.84;;;;
2020/12/25 04:15:15;;;;;;;1;1;;;;;;;2.59;88.12012;94781.84;;;;
2020/12/25 04:16:16;;;;;;;1;1;;;;;;;2.59;88.12012;94781.84;;;;
2020/12/25 04:17:16;;;;;;;1;1;;;;;;;2.59;88.12012;94781.84;;;;
2020/12/25 04:18:16;;;;;;;1;1;;;;;;;2.59;88.12012;94781.84;;;;
2020/12/25 04:19:17;;;;;;;1;1;;;;;;;2.59;88.12012;94781.84;;;;
2020/12/25 04:20:18;;;;;;;1;1;;;;;;;2.59;88.12012;94781.84;;;;
2020/12/25 04:21:18;;;;;;;1;1;;;;;;;2.59;88.12012;94781.84;;;;
2020/12/25 04:22:19;;;;;;;0.9;0.9;;;;;;;2.44;88.06641;94806.99;;;;
2020/12/25 04:23:19;;;;;;;0.9;0.9;;;;;;;2.44;88.06641;94806.99;;;;
2020/12/25 04:24:19;;;;;;;0.9;0.9;;;;;;;2.44;88.06641;94806.99;;;;
2020/12/25 04:25:20;;;;;;;0.9;0.9;;;;;;;2.44;88.06641;94806.99;;;;
2020/12/25 04:26:20;;;;;;;0.9;0.9;;;;;;;2.44;88.06641;94806.99;;;;
2020/12/25 04:27:21;;;;;;;0.9;0.9;;;;;;;2.44;88.06641;94806.99;;;;
2020/12/25 04:28:21;;;;;;;0.9;0.9;;;;;;;2.44;88.06641;94806.99;;;;
2020/12/25 04:29:22;;;;;;;0.9;0.9;;;;;;;2.44;88.06641;94806.99;;;;
2020/12/25 04:30:23;;;;;;;0.9;0.9;;;;;;;2.44;88.06641;94806.99;;;;
2020/12/25 04:31:23;;;;;;;0.9;0.9;;;;;;;2.44;88.06641;94806.99;;;;
2020/12/25 04:32:24;;;;;;;0.9;0.9;;;;;;;2.44;88.06641;94806.99;;;;
2020/12/25 04:33:25;;;;;;;1;1;;;;;;;2.25;87.86133;94834.25;;;;
2020/12/25 04:34:25;;;;;;;1;1;;;;;;;2.25;87.86133;94834.25;;;;
2020/12/25 04:35:25;;;;;;;1;1;;;;;;;2.25;87.86133;94834.25;;;;
2020/12/25 04:36:26;;;;;;;1;1;;;;;;;2.25;87.86133;94834.25;;;;
2020/12/25 04:37:27;;;;;;;1;1;;;;;;;2.25;87.86133;94834.25;;;;
2020/12/25 04:38:27;;;;;;;1;1;;;;;;;2.25;87.86133;94834.25;;;;
2020/12/25 04:39:28;;;;;;;1;1;;;;;;;2.25;87.86133;94834.25;;;;
2020/12/25 04:40:28;;;;;;;1;1;;;;;;;2.25;87.86133;94834.25;;;;
2020/12/25 04:41:29;;;;;;;1;1;;;;;;;2.25;87.86133;94834.25;;;;
2020/12/25 04:42:30;;;;;;;1;1;;;;;;;2.25;87.86133;94834.25;;;;
2020/12/25 04:43:32;;;;;;;1.15;1.05;;;;;;;2.09;88.11035;94842.55;;;;
2020/12/25 04:44:33;;;;;;;1.15;1.05;;;;;;;2.09;88.11035;94842.55;;;;
2020/12/25 04:45:35;;;;;;;1.15;1.05;;;;;;;2.09;88.11035;94842.55;;;;
2020/12/25 04:46:36;;;;;;;1.15;1.05;;;;;;;2.09;88.11035;94842.55;;;;
2020/12/25 04:47:37;;;;;;;1.15;1.05;;;;;;;2.09;88.11035;94842.55;;;;
2020/12/25 04:48:37;;;;;;;1.15;1.05;;;;;;;2.09;88.11035;94842.55;;;;
2020/12/25 04:49:39;;;;;;;1.15;1.05;;;;;;;2.09;88.11035;94842.55;;;;
2020/12/25 04:50:39;;;;;;;1.15;1.05;;;;;;;2.09;88.11035;94842.55;;;;
2020/12/25 04:51:40;;;;;;;1.15;1.05;;;;;;;2.09;88.11035;94842.55;;;;
2020/12/25 04:52:40;;;;;;;1.15;1.05;;;;;;;2.09;88.11035;94842.55;;;;
2020/12/25 04:53:41;;;;;;;1.15;1.05;;;;;;;2.09;88.11035;94842.55;;;;
2020/12/25 04:54:42;;;;;;;2;1.1;;;;;;;1.96;87.83398;94860.17;;;;
2020/12/25 04:55:42;;;;;;;2;1.1;;;;;;;1.96;87.83398;94860.17;;;;
2020/12/25 04:56:43;;;;;;;2;1.1;;;;;;;1.96;87.83398;94860.17;;;;
2020/12/25 04:57:43;;;;;;;2;1.1;;;;;;;1.96;87.83398;94860.17;;;;
2020/12/25 04:58:44;;;;;;;2;1.1;;;;;;;1.96;87.83398;94860.17;;;;
2020/12/25 04:59:44;;;;;;;2;1.1;;;;;;;1.96;87.83398;94860.17;;;;
2020/12/25 05:00:45;;;;;;;2;1.1;;;;;;;1.96;87.83398;94860.17;;;;
2020/12/25 05:02:00;;;;;;;2;1.1;;;;;;;1.96;87.83398;94860.17;;;;
2020/12/25 05:03:01;;;;;;;2;1.1;;;;;;;1.96;87.83398;94860.17;;;;
2020/12/25 05:04:05;;;;;;;2;1.1;;;;;;;1.96;87.83398;94860.17;;;;
2020/12/25 05:05:17;;;;;;;1;1;;;;;;;1.9;87.80176;94885.83;;;;
2020/12/25 05:06:25;;;;;;;1;1;;;;;;;1.9;87.80176;94885.83;;;;
2020/12/25 05:07:26;;;;;;;1;1;;;;;;;1.9;87.80176;94885.83;;;;
2020/12/25 05:08:27;;;;;;;1;1;;;;;;;1.9;87.80176;94885.83;;;;
2020/12/25 05:09:28;;;;;;;1;1;;;;;;;1.9;87.80176;94885.83;;;;
2020/12/25 05:10:29;;;;;;;1;1;;;;;;;1.9;87.80176;94885.83;;;;
2020/12/25 05:11:29;;;;;;;1;1;;;;;;;1.9;87.80176;94885.83;;;;
2020/12/25 05:12:31;;;;;;;1;1;;;;;;;1.9;87.80176;94885.83;;;;
2020/12/25 05:13:31;;;;;;;1;1;;;;;;;1.9;87.80176;94885.83;;;;
2020/12/25 05:14:33;;;;;;;1;1;;;;;;;1.9;87.80176;94885.83;;;;
2020/12/25 05:15:33;;;;;;;1.3;1.2;;;;;;;1.77;87.63867;94895.45;;;;
2020/12/25 05:16:34;;;;;;;1.3;1.2;;;;;;;1.77;87.63867;94895.45;;;;
2020/12/25 05:17:35;;;;;;;1.3;1.2;;;;;;;1.77;87.63867;94895.45;;;;
2020/12/25 05:18:36;;;;;;;1.3;1.2;;;;;;;1.77;87.63867;94895.45;;;;
2020/12/25 05:19:42;;;;;;;1.3;1.2;;;;;;;1.77;87.63867;94895.45;;;;
2020/12/25 05:20:44;;;;;;;1.3;1.2;;;;;;;1.77;87.63867;94895.45;;;;
2020/12/25 05:21:45;;;;;;;1.3;1.2;;;;;;;1.77;87.63867;94895.45;;;;
2020/12/25 05:22:47;;;;;;;1.3;1.2;;;;;;;1.77;87.63867;94895.45;;;;
2020/12/25 05:23:47;;;;;;;1.3;1.2;;;;;;;1.77;87.63867;94895.45;;;;
2020/12/25 05:24:49;;;;;;;1.3;1.2;;;;;;;1.77;87.63867;94895.45;;;;
2020/12/25 05:25:50;;;;;;;1.3;1.2;;;;;;;1.77;87.63867;94895.45;;;;
2020/12/25 05:26:50;;;;;;;1.15;1.1;;;;;;;1.73;88.21387;94909.73;;;;
2020/12/25 05:27:52;;;;;;;1.15;1.1;;;;;;;1.73;88.21387;94909.73;;;;
2020/12/25 05:28:55;;;;;;;1.15;1.1;;;;;;;1.73;88.21387;94909.73;;;;
2020/12/25 05:29:57;;;;;;;1.15;1.1;;;;;;;1.73;88.21387;94909.73;;;;
2020/12/25 05:30:58;;;;;;;1.15;1.1;;;;;;;1.73;88.21387;94909.73;;;;
2020/12/25 05:31:59;;;;;;;1.15;1.1;;;;;;;1.73;88.21387;94909.73;;;;
2020/12/25 05:33:00;;;;;;;1.15;1.1;;;;;;;1.73;88.21387;94909.73;;;;
2020/12/25 05:34:02;;;;;;;1.15;1.1;;;;;;;1.73;88.21387;94909.73;;;;
2020/12/25 05:35:05;;;;;;;1.15;1.1;;;;;;;1.73;88.21387;94909.73;;;;
2020/12/25 05:36:06;;;;;;;1.15;1.1;;;;;;;1.73;88.21387;94909.73;;;;
2020/12/25 05:37:08;;;;;;;2;1.3;;;;;;;1.63;88.65234;94919.05;;;;
2020/12/25 05:38:09;;;;;;;2;1.3;;;;;;;1.63;88.65234;94919.05;;;;
2020/12/25 05:39:10;;;;;;;2;1.3;;;;;;;1.63;88.65234;94919.05;;;;
2020/12/25 05:40:10;;;;;;;2;1.3;;;;;;;1.63;88.65234;94919.05;;;;
2020/12/25 05:41:11;;;;;;;2;1.3;;;;;;;1.63;88.65234;94919.05;;;;
2020/12/25 05:42:11;;;;;;;2;1.3;;;;;;;1.63;88.65234;94919.05;;;;
2020/12/25 05:43:12;;;;;;;2;1.3;;;;;;;1.63;88.65234;94919.05;;;;
2020/12/25 05:44:14;;;;;;;2;1.3;;;;;;;1.63;88.65234;94919.05;;;;
2020/12/25 05:45:15;;;;;;;2;1.3;;;;;;;1.63;88.65234;94919.05;;;;
2020/12/25 05:46:16;;;;;;;2;1.3;;;;;;;1.63;88.65234;94919.05;;;;
2020/12/25 05:47:17;;;;;;;1.7;1.6;;;;;;;1.56;88.99512;94934.43;;;;
2020/12/25 05:48:18;;;;;;;1.7;1.6;;;;;;;1.56;88.99512;94934.43;;;;
2020/12/25 05:49:19;;;;;;;1.7;1.6;;;;;;;1.56;88.99512;94934.43;;;;
2020/12/25 05:50:19;;;;;;;1.7;1.6;;;;;;;1.56;88.99512;94934.43;;;;
2020/12/25 05:51:20;;;;;;;1.7;1.6;;;;;;;1.56;88.99512;94934.43;;;;
2020/12/25 05:52:21;;;;;;;1.7;1.6;;;;;;;1.56;88.99512;94934.43;;;;
2020/12/25 05:53:21;;;;;;;1.7;1.6;;;;;;;1.56;88.99512;94934.43;;;;
2020/12/25 05:54:22;;;;;;;1.7;1.6;;;;;;;1.56;88.99512;94934.43;;;;
2020/12/25 05:55:25;;;;;;;1.7;1.6;;;;;;;1.56;88.99512;94934.43;;;;
2020/12/25 05:56:26;;;;;;;1.7;1.6;;;;;;;1.56;88.99512;94934.43;;;;
2020/12/25 05:57:29;;;;;;;1.7;1.6;;;;;;;1.56;88.99512;94934.43;;;;
2020/12/25 05:58:33;;;;;;;1.9;1.55;;;;;;;1.59;89.63477;94947.88;;;;
2020/12/25 05:59:34;;;;;;;1.9;1.55;;;;;;;1.59;89.63477;94947.88;;;;